Hatsu Envoy — VSQL9 — position and weather

sailwx.info

Track history (hours):
 
Tides and Currents Weather Stations Pressure Air Temp Water Temp Dewpoint Dewpoint Depression Visibility Wind Speed Wind Dir Waves Ship Positions

Hatsu Envoy

Last reported at 2018-Jul-22 03:00 UTC. Time now 2018-Jul-22 03:12 UTC.
Position N 33°38' W 119°56'.

Type: Ship (hazmat cat D). MMSI: 235414000.

Date/timePositionNaut miles runAvg speedWind from/ knotsBaromVisibWave heightAir tempDewpointWater temp
2018-Jul-22 03:00N 33°38' W 119°56'510.9
2018-Jul-22 02:30N 33°38' W 120°02'510.9
2018-Jul-22 02:00N 33°38' W 120°09'610.7
2018-Jul-22 01:29N 33°38' W 120°15'510.7
2018-Jul-22 01:01N 33°38' W 120°21'610.9
2018-Jul-22 00:30N 33°38' W 120°28'510.9
2018-Jul-22 00:00N 33°38' W 120°35'510.8
2018-Jul-21 23:31N 33°38' W 120°41'610.9
2018-Jul-21 23:00N 33°38' W 120°48'510.8
2018-Jul-21 22:30N 33°38' W 120°54'510.5
2018-Jul-21 22:01N 33°38' W 121°00'611.4
2018-Jul-21 21:30N 33°38' W 121°07'713.4
2018-Jul-21 21:01N 33°38' W 121°15'714.3
2018-Jul-21 20:30N 33°38' W 121°24'1020.1
2018-Jul-21 20:00N 33°38' W 121°36'1121.3
2018-Jul-21 19:30N 33°38' W 121°49'1121.2
2018-Jul-21 19:00N 33°38' W 122°02'1121.1
2018-Jul-21 18:29N 33°38' W 122°15'1120.7
2018-Jul-21 17:58N 33°38' W 122°28'1321.2
2018-Jul-21 17:21N 33°38' W 122°43'721.0
2018-Jul-21 17:00N 33°38' W 122°52'1121.2
2018-Jul-21 16:30N 33°39' W 123°05'1121.5
2018-Jul-21 16:00N 33°39' W 123°17'1121.3
2018-Jul-21 15:30N 33°39' W 123°30'1521.4
2018-Jul-21 14:49N 33°39' W 123°48'721.1
2018-Jul-21 14:30N 33°39' W 123°56'2421.1
2018-Jul-21 13:21N 33°39' W 124°25'8018.2
2018-Jul-21 08:58N 34°14' W 125°52'3520.7
2018-Jul-21 07:18N 34°30' W 126°29'820.5
2018-Jul-21 06:54N 34°33' W 126°38'15120.6
2018-Jul-20 23:36N 35°40' W 129°23'320.1
2018-Jul-20 23:26N 35°42' W 129°27'919.8
2018-Jul-20 22:57N 35°45' W 129°37'919.9
2018-Jul-20 22:29N 35°50' W 129°48'11420.1
2018-Jul-20 16:49N 36°37' W 131°56'  
Track history (hours):
 
Tides and Currents Weather Stations Pressure Air Temp Water Temp Dewpoint Dewpoint Depression Visibility Wind Speed Wind Dir Waves Ship Positions

Hatsu Envoy

Last reported at 2018-Jul-22 03:00 UTC. Time now 2018-Jul-22 03:12 UTC.
Position N 33°38' W 119°56'.

Type: Ship (hazmat cat D). MMSI: 235414000.

Date/timePositionNaut miles runAvg speedWind from/ knotsBaromVisibWave heightAir tempDewpointWater temp
2018-Jul-22 03:00N 33°38' W 119°56'510.9
2018-Jul-22 02:30N 33°38' W 120°02'510.9
2018-Jul-22 02:00N 33°38' W 120°09'610.7
2018-Jul-22 01:29N 33°38' W 120°15'510.7
2018-Jul-22 01:01N 33°38' W 120°21'610.9
2018-Jul-22 00:30N 33°38' W 120°28'510.9
2018-Jul-22 00:00N 33°38' W 120°35'510.8
2018-Jul-21 23:31N 33°38' W 120°41'610.9
2018-Jul-21 23:00N 33°38' W 120°48'510.8
2018-Jul-21 22:30N 33°38' W 120°54'510.5
2018-Jul-21 22:01N 33°38' W 121°00'611.4
2018-Jul-21 21:30N 33°38' W 121°07'713.4
2018-Jul-21 21:01N 33°38' W 121°15'714.3
2018-Jul-21 20:30N 33°38' W 121°24'1020.1
2018-Jul-21 20:00N 33°38' W 121°36'1121.3
2018-Jul-21 19:30N 33°38' W 121°49'1121.2
2018-Jul-21 19:00N 33°38' W 122°02'1121.1
2018-Jul-21 18:29N 33°38' W 122°15'1120.7
2018-Jul-21 17:58N 33°38' W 122°28'1321.2
2018-Jul-21 17:21N 33°38' W 122°43'721.0
2018-Jul-21 17:00N 33°38' W 122°52'1121.2
2018-Jul-21 16:30N 33°39' W 123°05'1121.5
2018-Jul-21 16:00N 33°39' W 123°17'1121.3
2018-Jul-21 15:30N 33°39' W 123°30'1521.4
2018-Jul-21 14:49N 33°39' W 123°48'721.1
2018-Jul-21 14:30N 33°39' W 123°56'2421.1
2018-Jul-21 13:21N 33°39' W 124°25'8018.2
2018-Jul-21 08:58N 34°14' W 125°52'3520.7
2018-Jul-21 07:18N 34°30' W 126°29'820.5
2018-Jul-21 06:54N 34°33' W 126°38'15120.6
2018-Jul-20 23:36N 35°40' W 129°23'320.1
2018-Jul-20 23:26N 35°42' W 129°27'919.8
2018-Jul-20 22:57N 35°45' W 129°37'919.9
2018-Jul-20 22:29N 35°50' W 129°48'11420.1
2018-Jul-20 16:49N 36°37' W 131°56'  

Dump ship's entire track history